Flight Track Log - Related Links

Times and Time Zones

All times are in EDT time to prevent confusion due to time zone crossing. See the UAL1248 flight status page for this flight to view local times or setup timezone preferences in your user account.

Time Position Orientation Groundspeed Altitude Reporting Facility
EDT Latitude Longitude Course Direction KTS MPH feet Rate Location/Type
Thu 02:27:14 PM 40.6916 -74.1677 126° Southeast 105 121  Level FlightAware ADS-B
Thu 02:27:43 PM 40.6736 -74.1790 205° Southwest 160 184 800 1,886 Climbing FlightAware ADS-B
Thu 02:27:49 PM 40.6697 -74.1814 205° Southwest 160 184 1,100 2,800 Climbing FlightAware ADS-B
Thu 02:27:58 PM 40.6621 -74.1835 192° South 168 193 1,500 2,471 Climbing FlightAware ADS-B
Thu 02:28:06 PM 40.6558 -74.1829 176° South 180 207 1,800 2,000 Climbing FlightAware ADS-B
Thu 02:28:13 PM 40.6501 -74.1821 174° South 190 219 2,000 1,600 Climbing FlightAware ADS-B
Thu 02:28:21 PM 40.6431 -74.1819 179° South 197 227 2,200 1,929 Climbing FlightAware ADS-B
Thu 02:28:41 PM 40.6249 -74.1902 199° South 208 239 2,900 2,516 Climbing FlightAware ADS-B
Thu 02:28:52 PM 40.6151 -74.1980 211° Southwest 220 253 3,500 3,000 Climbing FlightAware ADS-B
Thu 02:29:01 PM 40.6087 -74.2070 227° Southwest 227 261 3,900 2,700 Climbing FlightAware ADS-B
Thu 02:29:12 PM 40.6044 -74.2207 248° West 235 270 4,400 2,348 Climbing FlightAware ADS-B
Thu 02:29:24 PM 40.6050 -74.2384 273° West 245 282 4,800 2,250 Climbing FlightAware ADS-B
Thu 02:29:28 PM 40.6065 -74.2437 290° West 248 285 5,000 2,250 Climbing FlightAware ADS-B
Thu 02:29:32 PM 40.6089 -74.2494 299° West 253 291 5,100 2,250 Climbing FlightAware ADS-B
Thu 02:29:36 PM 40.6118 -74.2540 310° West 258 297 5,300 2,571 Climbing FlightAware ADS-B
Thu 02:29:39 PM 40.6148 -74.2576 318° Northwest 262 302 5,400 1,714 Climbing FlightAware ADS-B
Thu 02:29:50 PM 40.6268 -74.2665 331° Northwest 270 311 5,700 1,500 Climbing FlightAware ADS-B
Thu 02:29:55 PM 40.6319 -74.2683 345° North 270 311 5,800 2,182 Climbing FlightAware ADS-B
Thu 02:30:01 PM 40.6391 -74.2689 356° North 269 310 6,100 2,400 Climbing FlightAware ADS-B
Thu 02:30:10 PM 40.6506 -74.2660 11° North 276 318 6,400 2,933 Climbing FlightAware ADS-B
Thu 02:30:46 PM 40.6789 -74.2161 53° Northeast 278 320 8,300 3,081 Climbing FlightAware ADS-B
Thu 02:30:47 PM 40.6791 -74.2150 77° East 297 342 8,300 4,000 Level FlightAware ADS-B
Thu 02:30:49 PM 40.6807 -74.2104 65° Northeast 297 342 8,500 3,375 Climbing FlightAware ADS-B
Thu 02:31:03 PM 40.6872 -74.1879 69° East 294 338 9,200 3,000 Climbing FlightAware ADS-B
Thu 02:31:07 PM 40.6894 -74.1805 69° East 296 341 9,400 1,500 Climbing FlightAware ADS-B
Thu 02:31:19 PM 40.6958 -74.1596 68° East 306 352 9,600 1,059 Climbing FlightAware ADS-B
Thu 02:31:24 PM 40.6982 -74.1520 67° East 310 357 9,700 1,000 Climbing FlightAware ADS-B
Thu 02:31:31 PM 40.7027 -74.1392 65° Northeast 311 358 9,800 857 Climbing FlightAware ADS-B
Thu 02:31:38 PM 40.7073 -74.1282 61° Northeast 312 359 9,900 600 Climbing FlightAware ADS-B
Thu 02:31:41 PM 40.7098 -74.1225 60° Northeast 322 371 9,900  Level FlightAware ADS-B
Thu 02:31:55 PM 40.7218 -74.0998 55° Northeast 347 399 9,900  Level FlightAware ADS-B
Thu 02:32:03 PM 40.7303 -74.0863 50° Northeast 356 410 9,900 400 Level FlightAware ADS-B
Thu 02:32:10 PM 40.7381 -74.0751 47° Northeast 358 412 10,000 353 Climbing FlightAware ADS-B
Thu 02:32:20 PM 40.7502 -74.0588 46° Northeast 359 413 10,000  Level FlightAware ADS-B
Thu 02:32:26 PM 40.7570 -74.0492 47° Northeast 359 413 10,000  Level FlightAware ADS-B
Thu 02:32:36 PM 40.7680 -74.0339 46° Northeast 357 411 10,000  Level FlightAware ADS-B
Thu 02:32:43 PM 40.7761 -74.0224 47° Northeast 356 410 10,000  Level FlightAware ADS-B
Thu 02:32:55 PM 40.7890 -74.0039 47° Northeast 357 411 10,000  Level FlightAware ADS-B
Thu 02:33:08 PM 40.8036 -73.9832 47° Northeast 358 412 10,000  Level FlightAware ADS-B
Thu 02:33:12 PM 40.8087 -73.9769 43° Northeast 358 412 10,000  Level FlightAware ADS-B
Thu 02:33:16 PM 40.8139 -73.9714 39° Northeast 358 412 10,000 353 Level FlightAware ADS-B
Thu 02:33:29 PM 40.8317 -73.9557 34° Northeast 358 412 10,100 333 Climbing FlightAware ADS-B
Thu 02:33:34 PM 40.8391 -73.9498 31° Northeast 358 412 10,100 1,167 Level FlightAware ADS-B
Thu 02:34:05 PM 40.8839 -73.9158 30° Northeast 362 417 10,800 1,273 Climbing FlightAware ADS-B
Thu 02:34:07 PM 40.8870 -73.9133 31° Northeast 360 414 10,800 1,622 Level FlightAware ADS-B
Thu 02:34:42 PM 40.9341 -73.8671 37° Northeast 366 421 11,800 1,043 Climbing FlightAware ADS-B
Thu 02:35:16 PM 40.9747 -73.8110 46° Northeast 376 433 12,000 162 Climbing FlightAware ADS-B
Thu 02:35:56 PM 41.0175 -73.7402 51° Northeast 374 430 12,000 1,517 Level FlightAware ADS-B
Thu 02:36:43 PM 41.0691 -73.6542 51° Northeast 378 435 14,200 2,963 Climbing FlightAware ADS-B
Thu 02:37:17 PM 41.1062 -73.5934 51° Northeast 380 437 16,000 2,313 Climbing FlightAware ADS-B
Thu 02:38:06 PM 41.1587 -73.4968 54° Northeast 414 476 17,400 1,704 Climbing FlightAware ADS-B
Thu 02:38:38 PM 41.1826 -73.4191 68° East 436 502 18,300 2,000 Climbing FlightAware ADS-B
Thu 02:39:09 PM 41.2050 -73.3400 69° East 447 514 19,500 2,174 Climbing FlightAware ADS-B
Thu 02:39:47 PM 41.2330 -73.2420 69° East 456 525 20,800 1,268 Climbing FlightAware ADS-B
Thu 02:40:20 PM 41.2570 -73.1550 70° East 468 539 21,000 171 Climbing FlightAware ADS-B
Thu 02:40:57 PM 41.2850 -73.0560 69° East 466 536 21,000  Level FlightAware ADS-B
Thu 02:41:28 PM 41.3090 -72.9720 69° East 460 529 21,000  Level FlightAware ADS-B
Thu 02:42:06 PM 41.3360 -72.8730 70° East 460 529 21,000  Level FlightAware ADS-B
Thu 02:42:43 PM 41.3630 -72.7760 70° East 460 529 21,000  Level FlightAware ADS-B
Thu 02:43:19 PM 41.3910 -72.6780 69° East 460 529 21,000  Level FlightAware ADS-B
Thu 02:43:50 PM 41.4160 -72.6000 67° East 459 528 21,000  Level FlightAware ADS-B
Thu 02:44:27 PM 41.4450 -72.5060 68° East 458 527 21,000  Level FlightAware ADS-B
Thu 02:45:04 PM 41.4750 -72.4090 68° East 377 434 21,000  Level FlightAware ADS-B
Thu 02:45:42 PM 41.5040 -72.3130 68° East 460 529 21,000  Level FlightAware ADS-B
Thu 02:46:23 PM 41.5320 -72.2220 68° East 460 529 21,000  Level FlightAware ADS-B
Thu 02:46:59 PM 41.5560 -72.1410 68° East 460 529 21,000 -76 Level FlightAware ADS-B
Thu 02:47:42 PM 41.5980 -71.9990 68° East 409 471 20,900 -385 Descending FlightAware ADS-B
Thu 02:48:17 PM 41.6230 -71.9160 68° East 421 484 20,500 -831 Descending FlightAware ADS-B
Thu 02:48:47 PM 41.6450 -71.8420 68° East 430 495 20,000 -1,286 Descending FlightAware ADS-B
Thu 02:49:27 PM 41.6740 -71.7430 69° East 428 493 19,000 -1,000 Descending FlightAware ADS-B
Thu 02:50:17 PM 41.7060 -71.6370 68° East 422 486 18,500 -1,841 Descending FlightAware ADS-B
Thu 02:50:55 PM 41.7340 -71.5400 69° East 410 472 16,300 -2,780 Descending FlightAware ADS-B
Thu 02:51:39 PM 41.7660 -71.4300 69° East 395 455 14,700 -2,127 Descending FlightAware ADS-B
Thu 02:52:14 PM 41.7880 -71.3560 68° East 384 442 13,500 -2,057 Descending FlightAware ADS-B
Thu 02:52:49 PM 41.8120 -71.2740 69° East 376 433 12,300 -1,971 Descending FlightAware ADS-B
Thu 02:53:24 PM 41.8510 -71.2120 50° Northeast 365 420 11,200 -1,543 Descending FlightAware ADS-B
Thu 02:53:59 PM 41.8890 -71.1610 45° Northeast 352 405 10,500 -750 Descending FlightAware ADS-B
Thu 02:54:44 PM 41.9390 -71.0930 45° Northeast 324 373 10,200 -600 Descending FlightAware ADS-B
Thu 02:55:09 PM 41.9620 -71.0530 52° Northeast 311 358 9,800 -1,320 Descending FlightAware ADS-B
Thu 02:55:34 PM 41.9840 -71.0110 55° Northeast 301 346 9,100 -1,600 Descending FlightAware ADS-B
Thu 02:55:54 PM 41.9990 -70.9820 55° Northeast 301 346 8,600 -625 Descending FlightAware ADS-B
Thu 02:56:22 PM 42.0170 -70.9440 57° Northeast 301 346 8,600 -1,467 Level FlightAware ADS-B
Thu 02:56:39 PM 42.0340 -70.9120 54° Northeast 301 346 7,500 -2,000 Descending FlightAware ADS-B
Thu 02:57:34 PM 42.0750 -70.8280 57° Northeast 299 344 6,200 -903 Descending FlightAware ADS-B
Thu 02:58:12 PM 42.1010 -70.7770 55° Northeast 297 342 6,100 -171 Descending FlightAware ADS-B
Thu 02:58:44 PM 42.1270 -70.7250 56° Northeast 297 342 6,000 -115 Descending FlightAware ADS-B
Thu 02:59:04 PM 42.1430 -70.6920 57° Northeast 298 343 6,000  Level FlightAware ADS-B
Thu 02:59:24 PM 42.1590 -70.6590 57° Northeast 298 343 6,000  Level FlightAware ADS-B
Thu 02:59:52 PM 42.1770 -70.6220 57° Northeast 298 343 6,000 -353 Level FlightAware ADS-B
Thu 03:00:15 PM 42.1960 -70.5860 55° Northeast 253 291 5,700 -643 Descending FlightAware ADS-B
Thu 03:00:48 PM 42.2300 -70.5500 38° Northeast 230 265 5,400 -679 Descending FlightAware ADS-B
Thu 03:01:08 PM 42.2520 -70.5450 10° North 229 264 5,100 -585 Descending FlightAware ADS-B
Thu 03:01:29 PM 42.2740 -70.5410 North 228 262 5,000 -150 Descending FlightAware ADS-B
Thu 03:01:48 PM 42.2940 -70.5370 North 228 262 5,000  Level FlightAware ADS-B
Thu 03:02:03 PM 42.3110 -70.5370 360° North 229 264 5,000  Level FlightAware ADS-B
Thu 03:02:08 PM 42.3160 -70.5390 344° North 226 260 5,000  Level FlightAware ADS-B
Thu 03:02:23 PM 42.3300 -70.5490 332° Northwest 214 246 5,000 -474 Level FlightAware ADS-B
Thu 03:02:46 PM 42.3470 -70.5640 327° Northwest 210 242 4,700 -1,200 Descending FlightAware ADS-B
Thu 03:03:03 PM 42.3640 -70.5780 329° Northwest 211 243 4,200 -1,135 Descending FlightAware ADS-B
Thu 03:03:23 PM 42.3800 -70.5940 324° Northwest 209 241 4,000 -400 Descending FlightAware ADS-B
Thu 03:03:33 PM 42.3860 -70.6040 309° West 197 227 4,000  Level FlightAware ADS-B
Thu 03:03:54 PM 42.3940 -70.6250 297° West 172 198 4,000  Level FlightAware ADS-B
Thu 03:04:18 PM 42.4020 -70.6490 294° West 166 191 4,000 -136 Level FlightAware ADS-B
Thu 03:04:38 PM 42.4090 -70.6680 297° West 169 194 3,900 -514 Descending FlightAware ADS-B
Thu 03:04:53 PM 42.4110 -70.6850 279° West 168 193 3,700 -450 Descending FlightAware ADS-B
Thu 03:05:18 PM 42.4080 -70.7090 260° West 164 189 3,600 -400 Descending FlightAware ADS-B
Thu 03:05:38 PM 42.4050 -70.7300 259° West 166 191 3,400 -514 Descending FlightAware ADS-B
Thu 03:05:53 PM 42.4020 -70.7450 255° West 164 189 3,300 -514 Descending FlightAware ADS-B
Thu 03:06:13 PM 42.3980 -70.7660 256° West 164 189 3,100 -686 Descending FlightAware ADS-B
Thu 03:06:28 PM 42.3960 -70.7800 259° West 167 192 2,900 -857 Descending FlightAware ADS-B
Thu 03:06:48 PM 42.3920 -70.8000 255° West 164 189 2,600 -900 Descending FlightAware ADS-B
Thu 03:07:08 PM 42.3880 -70.8200 255° West 156 180 2,300 -750 Descending FlightAware ADS-B
Thu 03:07:28 PM 42.3850 -70.8390 258° West 148 170 2,100 -667 Descending FlightAware ADS-B
Thu 03:07:53 PM 42.3810 -70.8600 256° West 142 163 1,800 -800 Descending FlightAware ADS-B
Thu 03:08:13 PM 42.3780 -70.8780 257° West 141 162 1,500 -800 Descending FlightAware ADS-B
Thu 03:08:38 PM 42.3740 -70.8990 256° West 141 162 1,200 -667 Descending FlightAware ADS-B
Thu 03:08:58 PM 42.3710 -70.9150 256° West 123 142 1,000 -600 Descending FlightAware ADS-B
Thu 03:09:08 PM 42.3700 -70.9230 260° West 120 138 900 -450 Descending FlightAware ADS-B
Thu 03:09:38 PM 42.3660 -70.9430 255° West 122 140 700 -600 Descending FlightAware ADS-B
Thu 03:10:08 PM 42.3620 -70.9670 257° West 122 140 300 -421 Descending FlightAware ADS-B
Thu 03:10:35 PM 42.3600 -70.9840 261° West 122 140 300  Level FlightAware ADS-B

Login

Don't have an account? Register now (free) for customized features, flight alerts, and more!